createdAt,value
2022-10-18T00:00:00.838Z,5.93
2022-10-18T00:02:27.447Z,5.80
2022-10-18T00:04:53.951Z,6.15
2022-10-18T00:07:20.462Z,6.50
2022-10-18T00:09:46.973Z,5.93
2022-10-18T00:12:13.524Z,6.20
2022-10-18T00:14:40.073Z,6.38
2022-10-18T00:17:06.593Z,6.63
2022-10-18T00:19:33.111Z,6.28
2022-10-18T00:21:59.617Z,6.30
2022-10-18T00:24:26.156Z,6.47
2022-10-18T00:26:52.676Z,6.97
2022-10-18T00:29:19.501Z,7.57
2022-10-18T00:31:46.011Z,7.15
2022-10-18T00:34:15.309Z,7.50
2022-10-18T00:36:43.256Z,7.55
2022-10-18T00:39:15.311Z,7.53
2022-10-18T00:41:41.886Z,7.95
2022-10-18T00:44:11.137Z,7.82
2022-10-18T00:46:39.949Z,7.82
2022-10-18T00:49:41.639Z,6.85
2022-10-18T00:52:10.951Z,6.82
2022-10-18T00:54:41.410Z,7.60
2022-10-18T00:57:08.533Z,6.68
2022-10-18T00:59:36.017Z,7.57
2022-10-18T01:02:03.322Z,7.25
2022-10-18T01:04:29.909Z,7.53
2022-10-18T01:07:08.301Z,7.63
2022-10-18T01:09:40.864Z,7.57
2022-10-18T01:12:34.037Z,7.85
2022-10-18T01:15:05.817Z,7.45
2022-10-18T01:17:58.803Z,8.10
2022-10-18T01:20:54.564Z,8.07
2022-10-18T01:24:07.212Z,8.43
2022-10-18T01:26:48.156Z,7.90
2022-10-18T01:29:44.725Z,8.00
2022-10-18T01:32:22.923Z,8.75
2022-10-18T01:34:54.567Z,8.55
2022-10-18T01:37:22.410Z,8.63
2022-10-18T01:39:54.456Z,8.60
2022-10-18T01:42:21.587Z,8.70
2022-10-18T01:44:52.236Z,8.32
2022-10-18T01:47:20.176Z,7.95
2022-10-18T01:49:46.737Z,9.25
2022-10-18T01:52:14.600Z,9.20
2022-10-18T01:54:44.683Z,8.75
2022-10-18T01:57:24.761Z,9.85
2022-10-18T02:00:14.107Z,9.10
2022-10-18T02:02:58.773Z,8.43
2022-10-18T02:05:40.298Z,8.63
2022-10-18T02:08:30.801Z,9.27
2022-10-18T02:10:59.991Z,9.95
2022-10-18T02:13:31.410Z,9.38
2022-10-18T02:16:04.924Z,9.57
2022-10-18T02:18:38.861Z,8.95
2022-10-18T02:21:10.586Z,9.48
2022-10-18T02:23:38.956Z,9.80
2022-10-18T02:26:06.649Z,9.82
2022-10-18T02:28:33.193Z,10.18
2022-10-18T02:31:31.005Z,10.40
2022-10-18T02:34:02.524Z,9.50
2022-10-18T02:36:35.915Z,9.25
2022-10-18T02:39:07.568Z,11.00
2022-10-18T02:41:34.327Z,10.38
2022-10-18T02:44:02.961Z,10.93
2022-10-18T02:46:29.547Z,10.00
2022-10-18T02:48:56.094Z,10.20
2022-10-18T02:51:23.710Z,10.35
2022-10-18T02:53:50.168Z,10.80
2022-10-18T02:56:16.772Z,10.10
2022-10-18T02:58:43.332Z,11.02
2022-10-18T03:01:10.882Z,10.73
2022-10-18T03:03:38.448Z,11.57
2022-10-18T03:06:06.622Z,10.73
2022-10-18T03:08:33.126Z,11.30
2022-10-18T03:10:59.597Z,10.80
2022-10-18T03:13:26.175Z,11.18
2022-10-18T03:15:52.713Z,12.00
2022-10-18T03:18:19.203Z,10.73
2022-10-18T03:20:45.714Z,10.55
2022-10-18T03:23:12.278Z,11.05
2022-10-18T03:25:40.573Z,10.98
2022-10-18T03:28:09.411Z,11.00
2022-10-18T03:30:35.886Z,11.02
2022-10-18T03:33:02.407Z,10.77
2022-10-18T03:35:28.900Z,10.60
2022-10-18T03:37:55.391Z,10.40
2022-10-18T03:40:21.990Z,11.40
2022-10-18T03:42:48.553Z,10.90
2022-10-18T03:45:15.224Z,11.70
2022-10-18T03:47:41.725Z,11.65
2022-10-18T03:50:08.643Z,11.35
2022-10-18T03:52:35.168Z,10.02
2022-10-18T03:55:01.773Z,10.90
2022-10-18T03:57:28.263Z,10.32
2022-10-18T03:59:54.857Z,11.20
2022-10-18T04:02:21.590Z,10.85
2022-10-18T04:04:48.275Z,10.88
2022-10-18T04:07:15.577Z,10.18
2022-10-18T04:09:42.168Z,11.93
2022-10-18T04:12:08.629Z,11.18
2022-10-18T04:14:35.371Z,11.32
2022-10-18T04:17:02.036Z,11.10
2022-10-18T04:19:28.650Z,12.18
2022-10-18T04:21:55.350Z,11.02
2022-10-18T04:24:21.893Z,11.65
2022-10-18T04:26:48.428Z,11.93
2022-10-18T04:29:14.990Z,11.27
2022-10-18T04:31:41.524Z,11.13
2022-10-18T04:34:08.965Z,11.05
2022-10-18T04:36:35.533Z,10.85
2022-10-18T04:39:02.066Z,10.52
2022-10-18T04:41:28.708Z,10.30
2022-10-18T04:43:55.203Z,9.55
2022-10-18T04:46:22.597Z,9.45
2022-10-18T04:48:49.100Z,9.85
2022-10-18T04:51:15.631Z,10.15
2022-10-18T04:53:42.080Z,10.30
2022-10-18T04:56:08.800Z,10.18
2022-10-18T04:58:35.317Z,11.48
2022-10-18T05:01:05.512Z,10.95
2022-10-18T05:03:32.321Z,11.57
2022-10-18T05:06:02.699Z,11.18
2022-10-18T05:08:31.063Z,11.73
2022-10-18T05:10:57.717Z,11.23
2022-10-18T05:13:24.771Z,11.68
2022-10-18T05:15:51.968Z,12.77
2022-10-18T05:18:18.535Z,12.65
2022-10-18T05:20:45.069Z,12.65
2022-10-18T05:23:11.642Z,12.93
2022-10-18T05:25:39.638Z,12.18
2022-10-18T05:28:11.063Z,12.25
2022-10-18T05:30:47.871Z,12.93
2022-10-18T05:33:14.417Z,15.23
2022-10-18T05:35:40.928Z,15.25
2022-10-18T05:38:10.021Z,15.82
2022-10-18T05:40:39.532Z,16.33
2022-10-18T05:43:06.048Z,15.65
2022-10-18T05:45:32.540Z,16.08
2022-10-18T05:47:59.100Z,16.00
2022-10-18T05:50:25.658Z,17.15
2022-10-18T05:53:02.692Z,17.15
2022-10-18T05:58:05.187Z,15.68
2022-10-18T06:00:31.735Z,16.38
2022-10-18T06:03:00.282Z,16.58
2022-10-18T06:05:27.985Z,17.30
2022-10-18T06:07:58.380Z,16.77
2022-10-18T06:10:25.327Z,16.95
2022-10-18T06:12:51.875Z,15.32
2022-10-18T06:15:18.431Z,16.73
2022-10-18T06:17:44.991Z,17.23
2022-10-18T06:20:11.538Z,15.95
2022-10-18T06:22:38.025Z,16.10
2022-10-18T06:25:04.768Z,16.35
2022-10-18T06:27:33.966Z,15.93
2022-10-18T06:30:00.870Z,16.27
2022-10-18T06:32:27.342Z,16.27
2022-10-18T06:34:53.866Z,17.48
2022-10-18T06:37:20.327Z,16.27
2022-10-18T06:39:46.872Z,16.67
2022-10-18T06:42:13.358Z,16.33
2022-10-18T06:44:39.871Z,15.95
2022-10-18T06:47:07.769Z,16.17
2022-10-18T06:49:34.312Z,15.60
2022-10-18T06:52:00.888Z,16.33
2022-10-18T06:54:27.523Z,14.40
2022-10-18T06:56:57.086Z,15.90
2022-10-18T06:59:25.271Z,14.65
2022-10-18T07:01:54.204Z,15.60
2022-10-18T07:04:20.809Z,14.45
2022-10-18T07:06:47.374Z,14.18
2022-10-18T07:09:13.875Z,13.98
2022-10-18T07:11:40.430Z,12.82
2022-10-18T07:14:07.315Z,12.85
2022-10-18T07:16:34.491Z,12.35
2022-10-18T07:19:01.160Z,11.27
2022-10-18T07:21:27.775Z,12.38
2022-10-18T07:23:54.556Z,11.75
2022-10-18T07:26:24.878Z,12.20
2022-10-18T07:29:04.760Z,11.40
2022-10-18T07:31:31.386Z,11.65
2022-10-18T07:33:58.196Z,12.45
2022-10-18T07:36:25.584Z,12.93
2022-10-18T07:38:52.948Z,13.07
2022-10-18T07:41:19.954Z,12.43
2022-10-18T07:43:48.666Z,12.70
2022-10-18T07:46:15.585Z,13.65
2022-10-18T07:48:42.228Z,14.63
2022-10-18T07:51:09.099Z,14.52
2022-10-18T07:53:36.245Z,15.07
2022-10-18T07:56:08.741Z,14.23
2022-10-18T07:58:36.077Z,15.82
2022-10-18T08:01:04.623Z,14.38
2022-10-18T08:03:31.368Z,16.33
2022-10-18T08:05:57.973Z,14.52
2022-10-18T08:08:25.157Z,16.13
2022-10-18T08:10:52.202Z,16.05
2022-10-18T08:13:19.073Z,15.23
2022-10-18T08:15:46.083Z,16.45
2022-10-18T08:18:13.169Z,16.95
2022-10-18T08:20:44.787Z,16.20
2022-10-18T08:23:11.983Z,16.92
2022-10-18T08:25:38.686Z,17.15
2022-10-18T08:28:05.370Z,16.13
2022-10-18T08:30:31.884Z,16.48
2022-10-18T08:32:58.437Z,16.35
2022-10-18T08:35:25.040Z,17.10
2022-10-18T08:37:51.591Z,16.67
2022-10-18T08:40:18.447Z,16.38
2022-10-18T08:43:00.719Z,16.95
2022-10-18T08:45:41.990Z,15.88
2022-10-18T08:48:22.014Z,16.95
2022-10-18T08:50:50.861Z,16.95
2022-10-18T08:53:27.924Z,17.48
2022-10-18T08:56:15.147Z,16.67
2022-10-18T08:58:44.940Z,16.05
2022-10-18T09:01:29.750Z,15.57
2022-10-18T09:04:11.430Z,15.82
2022-10-18T09:07:13.647Z,16.63
2022-10-18T09:10:01.865Z,15.70
2022-10-18T09:12:37.408Z,15.05
2022-10-18T09:15:15.983Z,15.38
2022-10-18T09:17:57.264Z,15.55
2022-10-18T09:20:27.464Z,14.60
2022-10-18T09:22:57.113Z,13.63
2022-10-18T09:25:36.429Z,12.07
2022-10-18T09:28:31.114Z,12.23
2022-10-18T09:31:03.818Z,11.10
2022-10-18T09:33:33.332Z,11.32
2022-10-18T09:36:06.212Z,11.02
2022-10-18T09:38:41.789Z,11.00
2022-10-18T09:41:15.229Z,10.02
2022-10-18T09:43:58.863Z,9.82
2022-10-18T09:46:32.251Z,8.45
2022-10-18T09:49:02.337Z,8.90
2022-10-18T09:51:36.356Z,9.95
2022-10-18T09:54:13.510Z,10.35
2022-10-18T09:56:48.941Z,9.55
2022-10-18T09:59:27.884Z,9.48
2022-10-18T10:01:54.561Z,11.68
2022-10-18T10:04:21.065Z,9.88
2022-10-18T10:06:53.101Z,8.30
2022-10-18T10:09:36.122Z,8.80
2022-10-18T10:12:02.828Z,9.38
2022-10-18T10:14:30.739Z,8.52
2022-10-18T10:17:22.530Z,7.80
2022-10-18T10:20:10.981Z,7.75
2022-10-18T10:22:40.275Z,7.82
2022-10-18T10:25:18.945Z,7.97
2022-10-18T10:27:46.293Z,6.55
2022-10-18T10:30:34.187Z,6.65
2022-10-18T10:33:01.344Z,5.82
2022-10-18T10:35:52.536Z,6.38
2022-10-18T10:38:25.755Z,6.00
2022-10-18T10:40:52.865Z,6.55
2022-10-18T10:43:39.131Z,5.88
2022-10-18T10:46:13.943Z,6.28
2022-10-18T10:48:50.830Z,6.05
2022-10-18T10:51:38.966Z,5.50
2022-10-18T10:54:11.802Z,5.13
2022-10-18T10:56:59.161Z,4.88
2022-10-18T10:59:29.930Z,4.47
2022-10-18T11:02:17.654Z,4.72
2022-10-18T11:04:46.628Z,4.50
2022-10-18T11:07:27.402Z,5.55
2022-10-18T11:10:20.277Z,5.45
2022-10-18T11:13:02.315Z,5.25
2022-10-18T11:15:47.294Z,5.38
2022-10-18T11:18:19.954Z,5.55
2022-10-18T11:21:25.270Z,5.35
2022-10-18T11:23:51.942Z,5.82
2022-10-18T11:26:24.551Z,5.38
2022-10-18T11:29:18.895Z,4.82
2022-10-18T11:32:15.294Z,5.65
2022-10-18T11:35:29.542Z,5.50
2022-10-18T11:38:02.060Z,6.40
2022-10-18T11:40:44.632Z,5.18
2022-10-18T11:43:30.340Z,5.63
2022-10-18T11:46:21.465Z,5.65
2022-10-18T11:49:07.544Z,5.55
2022-10-18T11:52:07.905Z,5.55
2022-10-18T11:54:57.635Z,4.72
2022-10-18T11:57:39.410Z,5.63
2022-10-18T12:00:12.106Z,5.07
2022-10-18T12:02:57.261Z,5.22
2022-10-18T12:05:25.144Z,4.90
2022-10-18T12:07:51.753Z,3.90
2022-10-18T12:10:31.497Z,3.50
2022-10-18T12:13:12.878Z,3.20
2022-10-18T12:15:40.702Z,3.10
2022-10-18T12:18:13.321Z,2.67
2022-10-18T12:20:53.643Z,2.42
2022-10-18T12:23:26.163Z,2.42
2022-10-18T12:26:02.076Z,2.88
2022-10-18T12:28:34.740Z,2.33
2022-10-18T12:31:10.394Z,2.22
2022-10-18T12:33:44.339Z,2.22
2022-10-18T12:36:40.941Z,2.00
2022-10-18T12:39:14.732Z,2.05
2022-10-18T12:41:41.468Z,1.80
2022-10-18T12:44:17.733Z,1.90
2022-10-18T12:46:51.595Z,2.22
2022-10-18T12:49:28.553Z,2.00
2022-10-18T12:51:59.567Z,1.90
2022-10-18T12:54:33.356Z,1.90
2022-10-18T12:57:01.357Z,1.70
2022-10-18T12:59:27.785Z,2.00
2022-10-18T13:01:54.303Z,1.80
2022-10-18T13:04:33.665Z,1.52
2022-10-18T13:07:32.853Z,1.60
2022-10-18T13:10:12.764Z,1.60
2022-10-18T13:12:54.500Z,2.88
2022-10-18T13:15:46.459Z,1.70
2022-10-18T13:18:44.843Z,1.77
2022-10-18T13:21:20.375Z,2.00
2022-10-18T13:24:27.588Z,1.80
2022-10-18T13:27:35.421Z,1.98
2022-10-18T13:30:26.381Z,1.60
2022-10-18T13:32:52.777Z,1.45
2022-10-18T13:35:57.052Z,1.80
2022-10-18T13:38:29.255Z,1.50
2022-10-18T13:41:20.668Z,1.60
2022-10-18T13:43:56.073Z,1.90
2022-10-18T13:46:45.585Z,1.73
2022-10-18T13:49:33.247Z,1.50
2022-10-18T13:51:59.702Z,2.63
2022-10-18T13:54:46.910Z,1.73
2022-10-18T13:57:37.904Z,1.83
2022-10-18T14:00:48.970Z,1.67
2022-10-18T14:03:57.015Z,1.77
2022-10-18T14:06:28.211Z,2.33
2022-10-18T14:09:13.786Z,1.80
2022-10-18T14:11:53.865Z,1.40
2022-10-18T14:14:29.950Z,1.63
2022-10-18T14:19:50.745Z,1.70
2022-10-18T14:22:35.174Z,1.80
2022-10-18T14:25:01.878Z,1.85
2022-10-18T14:27:32.550Z,1.85
2022-10-18T14:30:15.981Z,1.70
2022-10-18T14:32:48.432Z,1.65
2022-10-18T14:35:32.165Z,2.00
2022-10-18T14:37:59.907Z,1.90
2022-10-18T14:40:34.919Z,1.67
2022-10-18T14:43:11.438Z,1.60
2022-10-18T14:45:38.357Z,1.90
2022-10-18T14:48:14.667Z,1.95
2022-10-18T14:50:42.706Z,1.58
2022-10-18T14:53:16.267Z,1.80
2022-10-18T14:55:43.136Z,1.80
2022-10-18T14:58:16.037Z,1.98
2022-10-18T15:00:45.122Z,1.50
2022-10-18T15:03:16.952Z,2.03
2022-10-18T15:05:59.468Z,1.88
2022-10-18T15:08:43.234Z,1.73
2022-10-18T15:11:14.339Z,1.40
2022-10-18T15:13:56.579Z,1.75
2022-10-18T15:16:26.958Z,1.65
2022-10-18T15:19:14.644Z,1.50
2022-10-18T15:22:08.095Z,1.58
2022-10-18T15:24:41.381Z,1.58
2022-10-18T15:27:29.068Z,1.83
2022-10-18T15:29:55.954Z,1.45
2022-10-18T15:32:29.288Z,1.70
2022-10-18T15:35:08.399Z,1.70
2022-10-18T15:37:41.947Z,2.03
2022-10-18T15:40:23.699Z,1.55
2022-10-18T15:42:55.223Z,1.60
2022-10-18T15:45:24.557Z,1.30
2022-10-18T15:48:06.326Z,1.70
2022-10-18T15:50:44.480Z,1.70
2022-10-18T15:53:20.156Z,1.80
2022-10-18T15:56:03.040Z,1.80
2022-10-18T15:58:29.588Z,1.80
2022-10-18T16:00:59.182Z,1.75
2022-10-18T16:03:26.801Z,2.17
2022-10-18T16:05:58.672Z,1.70
2022-10-18T16:08:31.840Z,1.55
2022-10-18T16:10:59.299Z,1.92
2022-10-18T16:13:27.012Z,2.15
2022-10-18T16:15:55.721Z,1.60
2022-10-18T16:18:23.725Z,1.58
2022-10-18T16:20:50.232Z,2.03
2022-10-18T16:23:20.520Z,1.55
2022-10-18T16:25:47.303Z,1.20
2022-10-18T16:28:20.784Z,1.80
2022-10-18T16:30:53.984Z,1.67
2022-10-18T16:33:21.716Z,1.05
2022-10-18T16:35:48.858Z,1.30
2022-10-18T16:38:24.145Z,1.50
2022-10-18T16:40:50.636Z,1.30
2022-10-18T16:43:17.246Z,1.35
2022-10-18T16:45:43.799Z,1.23
2022-10-18T16:48:14.910Z,1.48
2022-10-18T16:50:41.825Z,1.90
2022-10-18T16:53:08.499Z,1.40
2022-10-18T16:55:35.511Z,1.60
2022-10-18T16:58:02.151Z,1.38
2022-10-18T17:00:28.994Z,1.52
2022-10-18T17:02:55.783Z,1.52
2022-10-18T17:05:23.347Z,1.65
2022-10-18T17:07:50.136Z,2.10
2022-10-18T17:10:20.021Z,1.63
2022-10-18T17:12:46.866Z,1.90
2022-10-18T17:15:13.415Z,1.95
2022-10-18T17:17:42.278Z,2.47
2022-10-18T17:20:12.032Z,1.90
2022-10-18T17:22:38.570Z,1.63
2022-10-18T17:25:05.406Z,1.48
2022-10-18T17:27:32.318Z,1.60
2022-10-18T17:29:59.169Z,1.50
2022-10-18T17:32:25.738Z,1.42
2022-10-18T17:34:52.267Z,3.65
2022-10-18T17:37:18.856Z,2.88
2022-10-18T17:39:45.554Z,2.08
2022-10-18T17:42:12.136Z,1.75
2022-10-18T17:44:38.710Z,1.67
2022-10-18T17:47:05.384Z,2.00
2022-10-18T17:49:31.929Z,2.08
2022-10-18T17:52:01.104Z,1.67
2022-10-18T17:54:29.854Z,1.40
2022-10-18T17:56:56.495Z,1.80
2022-10-18T17:59:23.328Z,1.88
2022-10-18T18:01:49.955Z,1.80
2022-10-18T18:04:19.507Z,1.92
2022-10-18T18:06:48.926Z,2.05
2022-10-18T18:09:16.536Z,1.58
2022-10-18T18:11:44.561Z,1.48
2022-10-18T18:14:11.999Z,1.50
2022-10-18T18:16:41.493Z,1.20
2022-10-18T18:19:09.958Z,1.30
2022-10-18T18:21:37.435Z,1.70
2022-10-18T18:24:04.224Z,1.52
2022-10-18T18:26:32.675Z,1.85
2022-10-18T18:28:59.566Z,1.42
2022-10-18T18:31:27.606Z,1.58
2022-10-18T18:33:57.630Z,1.80
2022-10-18T18:36:28.803Z,1.35
2022-10-18T18:38:57.816Z,1.40
2022-10-18T18:41:26.038Z,1.63
2022-10-18T18:43:55.599Z,1.50
2022-10-18T18:46:23.509Z,1.38
2022-10-18T18:48:50.047Z,1.90
2022-10-18T18:51:19.148Z,1.58
2022-10-18T18:53:47.028Z,1.90
2022-10-18T18:56:23.770Z,1.67
2022-10-18T18:58:51.936Z,2.03
2022-10-18T19:01:22.279Z,1.52
2022-10-18T19:03:50.478Z,1.90
2022-10-18T19:06:20.004Z,1.58
2022-10-18T19:08:47.321Z,2.35
2022-10-18T19:11:16.641Z,2.88
2022-10-18T19:13:43.588Z,1.50
2022-10-18T19:16:17.647Z,2.33
2022-10-18T19:18:49.233Z,1.80
2022-10-18T19:21:15.700Z,2.85
2022-10-18T19:23:42.198Z,2.55
2022-10-18T19:26:11.116Z,2.20
2022-10-18T19:28:37.855Z,2.00
2022-10-18T19:31:05.354Z,2.03
2022-10-18T19:33:41.495Z,1.90
2022-10-18T19:36:18.491Z,1.73
2022-10-18T19:38:45.045Z,1.80
2022-10-18T19:41:11.943Z,1.63
2022-10-18T19:43:38.464Z,1.65
2022-10-18T19:46:05.716Z,1.50
2022-10-18T19:48:32.431Z,1.73
2022-10-18T19:51:09.028Z,1.77
2022-10-18T19:53:36.769Z,1.40
2022-10-18T19:56:05.138Z,1.90
2022-10-18T19:58:32.164Z,1.83
2022-10-18T20:01:00.182Z,1.75
2022-10-18T20:03:30.257Z,1.65
2022-10-18T20:05:59.007Z,1.50
2022-10-18T20:08:27.007Z,1.90
2022-10-18T20:10:53.790Z,1.98
2022-10-18T20:13:21.002Z,2.45
2022-10-18T20:15:51.328Z,1.77
2022-10-18T20:18:19.649Z,2.00
2022-10-18T20:20:48.266Z,2.72
2022-10-18T20:23:16.671Z,3.03
2022-10-18T20:25:43.945Z,2.40
2022-10-18T20:28:10.419Z,2.50
2022-10-18T20:30:36.995Z,2.45
2022-10-18T20:33:03.623Z,2.38
2022-10-18T20:35:30.177Z,2.80
2022-10-18T20:37:56.727Z,2.90
2022-10-18T20:40:23.257Z,2.55
2022-10-18T20:42:51.561Z,2.20
2022-10-18T20:45:18.195Z,2.15
2022-10-18T20:47:44.832Z,1.70
2022-10-18T20:50:11.351Z,1.83
2022-10-18T20:52:37.879Z,2.00
2022-10-18T20:55:04.880Z,2.28
2022-10-18T20:57:34.171Z,4.05
2022-10-18T21:00:03.708Z,10.85
2022-10-18T21:02:30.298Z,9.85
2022-10-18T21:04:56.861Z,5.78
2022-10-18T21:07:23.384Z,4.35
2022-10-18T21:09:49.972Z,2.67
2022-10-18T21:12:16.497Z,3.47
2022-10-18T21:14:42.990Z,2.65
2022-10-18T21:17:09.604Z,2.42
2022-10-18T21:19:36.086Z,2.20
2022-10-18T21:22:02.633Z,2.38
2022-10-18T21:24:30.160Z,2.60
2022-10-18T21:26:56.735Z,2.30
2022-10-18T21:29:26.954Z,2.13
2022-10-18T21:31:55.596Z,1.60
2022-10-18T21:34:22.253Z,1.73
2022-10-18T21:36:48.884Z,1.60
2022-10-18T21:39:18.694Z,1.67
2022-10-18T21:41:45.747Z,1.58
2022-10-18T21:44:12.646Z,1.58
2022-10-18T21:46:40.244Z,1.70
2022-10-18T21:49:07.548Z,1.70
2022-10-18T21:51:34.094Z,1.50
2022-10-18T21:54:00.816Z,1.98
2022-10-18T21:56:33.868Z,2.00
2022-10-18T21:59:01.863Z,1.63
2022-10-18T22:01:33.990Z,1.60
2022-10-18T22:04:02.648Z,2.05
2022-10-18T22:06:32.561Z,1.15
2022-10-18T22:09:02.197Z,1.65
2022-10-18T22:11:32.313Z,1.55
2022-10-18T22:13:59.361Z,1.23
2022-10-18T22:16:26.565Z,1.00
2022-10-18T22:18:57.831Z,1.00
2022-10-18T22:21:24.407Z,0.95
2022-10-18T22:23:53.173Z,1.20
2022-10-18T22:26:22.732Z,1.42
2022-10-18T22:28:58.134Z,1.23
2022-10-18T22:31:27.396Z,1.15
2022-10-18T22:33:56.116Z,1.20
2022-10-18T22:36:23.305Z,1.00
2022-10-18T22:38:50.032Z,1.02
2022-10-18T22:41:17.193Z,1.30
2022-10-18T22:43:43.942Z,1.05
2022-10-18T22:46:13.324Z,1.10
2022-10-18T22:48:40.919Z,1.30
2022-10-18T22:51:08.418Z,1.10
2022-10-18T22:53:35.950Z,1.25
2022-10-18T22:56:03.599Z,1.02
2022-10-18T22:58:30.499Z,1.02
2022-10-18T23:01:06.104Z,1.13
2022-10-18T23:03:33.040Z,1.02
2022-10-18T23:05:59.581Z,1.50
2022-10-18T23:08:26.710Z,0.73
2022-10-18T23:10:55.646Z,0.95
2022-10-18T23:13:23.660Z,1.13
2022-10-18T23:15:50.798Z,1.13
2022-10-18T23:18:18.015Z,1.00
2022-10-18T23:20:45.291Z,1.70
2022-10-18T23:23:12.665Z,1.17
2022-10-18T23:25:39.340Z,1.42
2022-10-18T23:28:06.526Z,1.10
2022-10-18T23:30:33.822Z,1.00
2022-10-18T23:33:00.415Z,1.45
2022-10-18T23:35:29.301Z,1.17
2022-10-18T23:37:55.802Z,1.50
2022-10-18T23:40:22.327Z,1.08
2022-10-18T23:42:48.808Z,1.00
2022-10-18T23:45:15.357Z,1.30
2022-10-18T23:47:41.812Z,1.33
2022-10-18T23:50:08.773Z,0.90
2022-10-18T23:52:35.338Z,1.67
2022-10-18T23:55:02.482Z,1.30
2022-10-18T23:57:29.041Z,1.30
2022-10-18T23:59:55.514Z,1.13
